MSC Maeva — H9TF — position and weather

sailwx.info

Track history (hours):
 
Tides and Currents Weather Stations Pressure Air Temp Water Temp Dewpoint Dewpoint Depression Visibility Wind Speed Wind Dir Waves Ship Positions

MSC Maeva

Last reported at 2016-Jun-03 10:33 UTC. Time now 2016-Jun-26 06:29 UTC.
Position N 31°48' E 031°48'.
Warning: this ship's position is 22 days out of date.

Type: Ship (hazmat cat A). MMSI: 371851000.

Date/timePositionNaut miles runAvg speedWind from/ knotsBaromVisibWave heightAir tempDewpointWater temp
2016-Jun-03 10:33N 31°48' E 031°48'10 9.6
2016-Jun-03 09:33N 31°51' E 031°38'11 9.6
2016-Jun-03 08:23N 31°56' E 031°26'3812.8
2016-Jun-03 05:25N 32°06' E 030°43'1111.9
2016-Jun-03 04:31N 32°09' E 030°31'1212.0
2016-Jun-03 03:29N 32°12' E 030°17'3611.7
2016-Jun-03 00:25N 32°24' E 029°36'33912.6
2016-Jun-01 21:33N 34°06' E 023°10'1313.4
2016-Jun-01 20:33N 34°10' E 022°54'1613.3
2016-Jun-01 19:22N 34°15' E 022°36'25613.4
2016-Jun-01 00:17N 35°33' E 017°38'1012.8
2016-May-31 23:32N 35°36' E 017°27'2612.9
2016-May-31 21:32N 35°44' E 016°57'4112.9
2016-May-31 18:20N 35°56' E 016°08'1012.8
2016-May-31 17:33N 35°59' E 015°57'1312.8
2016-May-31 16:32N 36°03' E 015°42'1713.1
2016-May-31 15:14N 36°08' E 015°21'913.4
2016-May-31 14:33N 36°11' E 015°10'1313.1
2016-May-31 13:33N 36°15' E 014°55'1313.3
2016-May-31 12:33N 36°19' E 014°39'1413.8
2016-May-31 11:33N 36°23' E 014°23'1413.9
2016-May-31 10:33N 36°28' E 014°07'1413.7
2016-May-31 09:33N 36°32' E 013°50'1413.6
2016-May-31 08:33N 36°36' E 013°34'1313.2
2016-May-31 07:33N 36°40' E 013°18'1413.7
2016-May-31 06:33N 36°44' E 013°02'2814.0
2016-May-31 04:33N 36°53' E 012°29'1414.1
2016-May-31 03:33N 36°57' E 012°12'1414.0
2016-May-31 02:34N 37°02' E 011°56'4313.6
2016-May-30 23:26N 37°23' E 011°09'1113.1
2016-May-30 22:33N 37°25' E 010°55'4512.9
2016-May-30 19:05N 37°34' E 009°60'713.7
2016-May-30 18:33N 37°32' E 009°51'4013.4
2016-May-30 15:33N 37°22' E 009°02'22614.1
2016-May-29 23:33N 37°09' E 004°18'7814.4
2016-May-29 18:08N 36°57' E 002°42'814.1
2016-May-29 17:33N 36°55' E 002°32'37713.9
2016-May-28 14:26N 35°60' W 005°12'1618.4
2016-May-28 13:34N 35°57' W 005°31'20011.7
2016-May-27 20:33N 37°41' W 009°04'1515.0
2016-May-27 19:33N 37°52' W 008°52'4 4.0
2016-May-27 18:32N 37°56' W 008°51'0 0.0
2016-May-27 17:32N 37°56' W 008°51'0 0.0
2016-May-27 16:32N 37°56' W 008°51'0 0.0
2016-May-27 15:32N 37°56' W 008°51'0 0.0
2016-May-27 14:32N 37°56' W 008°51'0 0.0
2016-May-27 13:32N 37°56' W 008°51'0 0.0
2016-May-27 12:32N 37°56' W 008°51'0 0.0
2016-May-27 11:32N 37°56' W 008°51'0 0.0
2016-May-27 10:32N 37°56' W 008°51'0 0.0
2016-May-27 09:32N 37°56' W 008°51'0 0.0
2016-May-27 08:32N 37°56' W 008°51'0 0.0
2016-May-27 07:32N 37°56' W 008°51'0 0.0
2016-May-27 06:32N 37°56' W 008°51'0 0.0
2016-May-27 05:32N 37°56' W 008°51'0 0.0
2016-May-27 04:32N 37°56' W 008°51'0 0.0
2016-May-27 03:33N 37°56' W 008°51'5 5.1
2016-May-27 02:34N 37°52' W 008°55'1211.9
2016-May-27 01:33N 37°51' W 009°11'1414.0
2016-May-27 00:33N 37°49' W 009°28'1414.3
2016-May-26 23:33N 37°47' W 009°46'2215.5
2016-May-26 22:08N 37°43' W 010°13'  
Track history (hours):
 
Tides and Currents Weather Stations Pressure Air Temp Water Temp Dewpoint Dewpoint Depression Visibility Wind Speed Wind Dir Waves Ship Positions

MSC Maeva

Last reported at 2016-Jun-03 10:33 UTC. Time now 2016-Jun-26 06:29 UTC.
Position N 31°48' E 031°48'.
Warning: this ship's position is 22 days out of date.

Type: Ship (hazmat cat A). MMSI: 371851000.

Date/timePositionNaut miles runAvg speedWind from/ knotsBaromVisibWave heightAir tempDewpointWater temp
2016-Jun-03 10:33N 31°48' E 031°48'10 9.6
2016-Jun-03 09:33N 31°51' E 031°38'11 9.6
2016-Jun-03 08:23N 31°56' E 031°26'3812.8
2016-Jun-03 05:25N 32°06' E 030°43'1111.9
2016-Jun-03 04:31N 32°09' E 030°31'1212.0
2016-Jun-03 03:29N 32°12' E 030°17'3611.7
2016-Jun-03 00:25N 32°24' E 029°36'33912.6
2016-Jun-01 21:33N 34°06' E 023°10'1313.4
2016-Jun-01 20:33N 34°10' E 022°54'1613.3
2016-Jun-01 19:22N 34°15' E 022°36'25613.4
2016-Jun-01 00:17N 35°33' E 017°38'1012.8
2016-May-31 23:32N 35°36' E 017°27'2612.9
2016-May-31 21:32N 35°44' E 016°57'4112.9
2016-May-31 18:20N 35°56' E 016°08'1012.8
2016-May-31 17:33N 35°59' E 015°57'1312.8
2016-May-31 16:32N 36°03' E 015°42'1713.1
2016-May-31 15:14N 36°08' E 015°21'913.4
2016-May-31 14:33N 36°11' E 015°10'1313.1
2016-May-31 13:33N 36°15' E 014°55'1313.3
2016-May-31 12:33N 36°19' E 014°39'1413.8
2016-May-31 11:33N 36°23' E 014°23'1413.9
2016-May-31 10:33N 36°28' E 014°07'1413.7
2016-May-31 09:33N 36°32' E 013°50'1413.6
2016-May-31 08:33N 36°36' E 013°34'1313.2
2016-May-31 07:33N 36°40' E 013°18'1413.7
2016-May-31 06:33N 36°44' E 013°02'2814.0
2016-May-31 04:33N 36°53' E 012°29'1414.1
2016-May-31 03:33N 36°57' E 012°12'1414.0
2016-May-31 02:34N 37°02' E 011°56'4313.6
2016-May-30 23:26N 37°23' E 011°09'1113.1
2016-May-30 22:33N 37°25' E 010°55'4512.9
2016-May-30 19:05N 37°34' E 009°60'713.7
2016-May-30 18:33N 37°32' E 009°51'4013.4
2016-May-30 15:33N 37°22' E 009°02'22614.1
2016-May-29 23:33N 37°09' E 004°18'7814.4
2016-May-29 18:08N 36°57' E 002°42'814.1
2016-May-29 17:33N 36°55' E 002°32'37713.9
2016-May-28 14:26N 35°60' W 005°12'1618.4
2016-May-28 13:34N 35°57' W 005°31'20011.7
2016-May-27 20:33N 37°41' W 009°04'1515.0
2016-May-27 19:33N 37°52' W 008°52'4 4.0
2016-May-27 18:32N 37°56' W 008°51'0 0.0
2016-May-27 17:32N 37°56' W 008°51'0 0.0
2016-May-27 16:32N 37°56' W 008°51'0 0.0
2016-May-27 15:32N 37°56' W 008°51'0 0.0
2016-May-27 14:32N 37°56' W 008°51'0 0.0
2016-May-27 13:32N 37°56' W 008°51'0 0.0
2016-May-27 12:32N 37°56' W 008°51'0 0.0
2016-May-27 11:32N 37°56' W 008°51'0 0.0
2016-May-27 10:32N 37°56' W 008°51'0 0.0
2016-May-27 09:32N 37°56' W 008°51'0 0.0
2016-May-27 08:32N 37°56' W 008°51'0 0.0
2016-May-27 07:32N 37°56' W 008°51'0 0.0
2016-May-27 06:32N 37°56' W 008°51'0 0.0
2016-May-27 05:32N 37°56' W 008°51'0 0.0
2016-May-27 04:32N 37°56' W 008°51'0 0.0
2016-May-27 03:33N 37°56' W 008°51'5 5.1
2016-May-27 02:34N 37°52' W 008°55'1211.9
2016-May-27 01:33N 37°51' W 009°11'1414.0
2016-May-27 00:33N 37°49' W 009°28'1414.3
2016-May-26 23:33N 37°47' W 009°46'2215.5
2016-May-26 22:08N 37°43' W 010°13'  

Dump ship's entire track history